Time;durP1;ratioP1;P1;durP2;ratioP2;P2;SDS_P1;SDS_P2;PMS_P1;PMS_P2;Temp;Humidity;BMP_temperature;BMP_pressure;BME280_temperature;BME280_humidity;BME280_pressure;Samples;Min_cycle;Max_cycle;Signal;HPM_P1;HPM_P2
2022/11/24 00:01:08;;;;;;;4.85;3.20;;;7.20;99.90;;;;;;477231;249;27551;-67
2022/11/24 00:03:09;;;;;;;10.15;3.37;;;7.20;99.90;;;;;;477268;249;27508;-64
2022/11/24 00:05:10;;;;;;;7.12;3.60;;;7.20;99.90;;;;;;477259;249;28032;-65
2022/11/24 00:07:12;;;;;;;13.38;3.87;;;7.20;99.90;;;;;;477263;249;28202;-67
2022/11/24 00:09:13;;;;;;;6.55;3.45;;;7.20;99.90;;;;;;477269;249;27500;-65
2022/11/24 00:11:14;;;;;;;7.20;3.80;;;7.20;99.90;;;;;;477260;249;27629;-67
2022/11/24 00:13:15;;;;;;;7.25;3.65;;;7.20;99.90;;;;;;477256;249;27486;-65
2022/11/24 00:15:17;;;;;;;8.75;3.72;;;7.20;99.90;;;;;;477267;249;27534;-66
2022/11/24 00:17:18;;;;;;;11.65;3.55;;;7.20;99.90;;;;;;477281;249;27644;-69
2022/11/24 00:19:19;;;;;;;7.62;3.78;;;7.20;99.90;;;;;;477198;249;27504;-66
2022/11/24 00:21:20;;;;;;;15.90;5.32;;;7.20;99.90;;;;;;477244;249;27607;-67
2022/11/24 00:23:22;;;;;;;8.23;3.95;;;7.20;99.90;;;;;;477224;249;27607;-66
2022/11/24 00:25:23;;;;;;;10.63;4.50;;;7.20;99.90;;;;;;477250;249;27500;-65
2022/11/24 00:27:24;;;;;;;6.60;4.28;;;7.20;99.90;;;;;;477178;249;28032;-68
2022/11/24 00:29:26;;;;;;;8.13;4.00;;;7.20;99.90;;;;;;477249;247;28127;-65
2022/11/24 00:31:27;;;;;;;13.27;3.80;;;7.20;99.90;;;;;;477244;249;27648;-66
2022/11/24 00:33:28;;;;;;;9.55;3.85;;;7.20;99.90;;;;;;477257;249;28143;-68
2022/11/24 00:35:29;;;;;;;9.65;3.37;;;7.20;99.90;;;;;;477258;249;27943;-66
2022/11/24 00:37:31;;;;;;;10.10;3.30;;;7.20;99.90;;;;;;477269;249;27533;-67
2022/11/24 00:39:32;;;;;;;10.55;3.60;;;7.20;99.90;;;;;;477266;249;27511;-66
2022/11/24 00:41:33;;;;;;;12.37;3.72;;;7.20;99.90;;;;;;477231;249;27539;-66
2022/11/24 00:43:35;;;;;;;13.05;3.28;;;7.20;99.90;;;;;;477225;249;27536;-69
2022/11/24 00:45:36;;;;;;;9.10;3.58;;;7.20;99.90;;;;;;477286;249;27513;-66
2022/11/24 00:47:37;;;;;;;9.73;3.22;;;7.20;99.90;;;;;;477242;249;28039;-66
2022/11/24 00:49:38;;;;;;;7.78;3.70;;;7.20;99.90;;;;;;477233;249;27952;-65
2022/11/24 00:51:40;;;;;;;6.32;3.40;;;7.20;99.90;;;;;;477234;249;27597;-65
2022/11/24 00:53:41;;;;;;;12.15;3.95;;;7.20;99.90;;;;;;477279;249;27622;-69
2022/11/24 00:55:42;;;;;;;8.10;2.95;;;7.30;99.90;;;;;;477271;249;27567;-65
2022/11/24 00:57:43;;;;;;;8.50;3.10;;;7.20;99.90;;;;;;477262;249;27540;-67
2022/11/24 00:59:45;;;;;;;4.12;2.85;;;7.30;99.90;;;;;;477209;249;27580;-66
2022/11/24 01:01:46;;;;;;;7.22;2.87;;;7.30;99.90;;;;;;477273;249;27948;-66
2022/11/24 01:03:47;;;;;;;5.70;2.50;;;7.30;99.90;;;;;;477289;249;28019;-67
2022/11/24 01:05:48;;;;;;;5.22;2.62;;;7.30;99.90;;;;;;477251;249;27536;-66
2022/11/24 01:07:50;;;;;;;5.20;2.58;;;7.30;99.90;;;;;;477284;249;27540;-66
2022/11/24 01:09:51;;;;;;;15.35;3.08;;;7.30;99.90;;;;;;477287;249;28201;-69
2022/11/24 01:12:02;;;;;;;7.62;2.70;;;7.30;99.90;;;;;;477298;249;27598;-66
2022/11/24 01:14:03;;;;;;;6.97;2.53;;;7.30;99.90;;;;;;477244;249;27576;-66
2022/11/24 01:16:04;;;;;;;7.75;3.20;;;7.30;99.90;;;;;;477254;249;28004;-66
2022/11/24 01:18:05;;;;;;;5.35;3.20;;;7.30;99.90;;;;;;477255;249;28104;-66
2022/11/24 01:20:08;;;;;;;8.85;3.08;;;7.30;99.90;;;;;;477287;249;27492;-66
2022/11/24 01:22:09;;;;;;;13.02;2.85;;;7.30;99.90;;;;;;477257;247;28149;-68
2022/11/24 01:24:11;;;;;;;4.37;2.50;;;7.30;99.90;;;;;;477276;249;27951;-66
2022/11/24 01:26:12;;;;;;;9.57;3.28;;;7.30;99.90;;;;;;477270;249;28051;-66
2022/11/24 01:28:13;;;;;;;7.22;2.97;;;7.30;99.90;;;;;;477243;249;27507;-66
2022/11/24 01:30:14;;;;;;;14.27;3.30;;;7.30;99.90;;;;;;477232;249;27563;-66
2022/11/24 01:32:16;;;;;;;6.65;2.40;;;7.30;99.90;;;;;;477258;249;27596;-69
2022/11/24 01:34:17;;;;;;;10.75;3.00;;;7.20;99.90;;;;;;477246;249;27532;-66
2022/11/24 01:36:18;;;;;;;6.43;2.60;;;7.20;99.90;;;;;;477259;249;28026;-66
2022/11/24 01:38:19;;;;;;;7.47;3.00;;;7.20;99.90;;;;;;477233;247;28040;-66
2022/11/24 01:40:21;;;;;;;12.40;3.22;;;7.20;99.90;;;;;;477257;249;27608;-64
2022/11/24 01:42:22;;;;;;;11.70;2.90;;;7.20;99.90;;;;;;477255;249;27646;-66
2022/11/24 01:44:23;;;;;;;6.60;2.62;;;7.20;99.90;;;;;;477263;249;27492;-66
2022/11/24 01:46:24;;;;;;;7.68;3.05;;;7.20;99.90;;;;;;477264;249;27535;-66
2022/11/24 01:48:26;;;;;;;8.65;3.22;;;7.20;99.90;;;;;;477223;249;27600;-66
2022/11/24 01:50:27;;;;;;;10.95;2.83;;;7.20;99.90;;;;;;477255;249;27949;-66
2022/11/24 01:52:28;;;;;;;9.23;2.95;;;7.20;99.90;;;;;;477250;249;28107;-68
2022/11/24 01:54:29;;;;;;;8.27;2.37;;;7.20;99.90;;;;;;477258;249;27492;-66
2022/11/24 01:56:31;;;;;;;11.68;3.03;;;7.20;99.90;;;;;;477242;249;27532;-67
2022/11/24 01:58:32;;;;;;;14.82;3.30;;;7.20;99.90;;;;;;477221;249;27490;-66
2022/11/24 02:00:34;;;;;;;9.18;3.12;;;7.20;99.90;;;;;;477260;249;27540;-67
2022/11/24 02:02:34;;;;;;;7.12;2.83;;;7.20;99.90;;;;;;477147;249;27560;-65
2022/11/24 02:04:36;;;;;;;14.87;3.75;;;7.20;99.90;;;;;;477263;249;27950;-64
2022/11/24 02:06:37;;;;;;;7.18;3.35;;;7.10;99.90;;;;;;477227;249;27547;-64
2022/11/24 02:08:38;;;;;;;11.90;3.10;;;7.20;99.90;;;;;;477229;249;27572;-64
2022/11/24 02:10:39;;;;;;;11.60;3.45;;;7.10;99.90;;;;;;477255;249;27591;-67
2022/11/24 02:12:41;;;;;;;13.23;3.53;;;7.10;99.90;;;;;;477219;249;27528;-67
2022/11/24 02:14:42;;;;;;;15.25;3.45;;;7.10;99.90;;;;;;477256;249;27583;-66
2022/11/24 02:16:43;;;;;;;12.75;3.05;;;7.10;99.90;;;;;;477228;249;28000;-67
2022/11/24 02:18:45;;;;;;;14.18;3.60;;;7.10;99.90;;;;;;477266;249;27543;-67
2022/11/24 02:20:46;;;;;;;10.30;3.20;;;7.10;99.90;;;;;;477238;249;27496;-66
2022/11/24 02:22:47;;;;;;;9.68;3.40;;;7.10;99.90;;;;;;477251;249;27516;-67
2022/11/24 02:24:48;;;;;;;12.32;3.20;;;7.10;99.90;;;;;;477219;249;27519;-65
2022/11/24 02:26:51;;;;;;;9.55;3.12;;;7.10;99.90;;;;;;477227;249;27584;-64
2022/11/24 02:28:51;;;;;;;6.15;2.65;;;7.10;99.90;;;;;;477193;249;28003;-66
2022/11/24 02:30:52;;;;;;;11.48;2.80;;;7.10;99.90;;;;;;477264;249;27963;-66
2022/11/24 02:32:53;;;;;;;12.45;3.55;;;7.10;99.90;;;;;;477216;249;27648;-67
2022/11/24 02:34:55;;;;;;;9.82;2.83;;;7.10;99.90;;;;;;477212;249;27691;-67
2022/11/24 02:36:56;;;;;;;13.18;3.28;;;7.10;99.90;;;;;;477259;249;27583;-66
2022/11/24 02:38:57;;;;;;;11.32;3.42;;;7.10;99.90;;;;;;477269;249;27548;-66
2022/11/24 02:40:58;;;;;;;5.95;2.65;;;7.10;99.90;;;;;;477233;249;27980;-64
2022/11/24 02:43:00;;;;;;;10.57;3.00;;;7.10;99.90;;;;;;477240;249;28050;-64
2022/11/24 02:45:01;;;;;;;13.40;3.40;;;7.10;99.90;;;;;;477222;249;27590;-63
2022/11/24 02:47:02;;;;;;;11.57;3.17;;;7.10;99.90;;;;;;477267;249;27481;-64
2022/11/24 02:49:03;;;;;;;14.65;3.10;;;7.10;99.90;;;;;;477252;249;27521;-67
2022/11/24 02:51:05;;;;;;;10.57;2.75;;;7.10;99.90;;;;;;477238;249;27516;-64
2022/11/24 02:53:06;;;;;;;12.32;2.72;;;7.10;99.90;;;;;;477248;249;28058;-64
2022/11/24 02:55:07;;;;;;;11.20;3.35;;;7.10;99.90;;;;;;477133;249;28110;-66
2022/11/24 02:57:08;;;;;;;7.10;3.20;;;7.10;99.90;;;;;;477236;249;27668;-64
2022/11/24 02:59:10;;;;;;;15.18;3.67;;;7.10;99.90;;;;;;477227;249;27651;-68
2022/11/24 03:01:11;;;;;;;9.55;3.47;;;7.10;99.90;;;;;;477233;249;27568;-66
2022/11/24 03:03:12;;;;;;;6.68;2.95;;;7.10;99.90;;;;;;477231;249;27543;-66
2022/11/24 03:05:13;;;;;;;10.27;3.20;;;7.10;99.90;;;;;;477265;249;27551;-67
2022/11/24 03:07:15;;;;;;;13.57;2.87;;;7.00;99.90;;;;;;477272;249;27969;-64
2022/11/24 03:09:16;;;;;;;7.78;3.00;;;7.10;99.90;;;;;;477254;249;27572;-64
2022/11/24 03:11:17;;;;;;;6.28;3.78;;;7.10;99.90;;;;;;477225;249;27495;-64
2022/11/24 03:13:19;;;;;;;15.27;3.53;;;7.00;99.90;;;;;;477223;249;27631;-64
2022/11/24 03:15:20;;;;;;;7.47;2.75;;;7.00;99.90;;;;;;477265;249;27609;-67
2022/11/24 03:17:21;;;;;;;9.07;3.30;;;7.00;99.90;;;;;;477250;249;27503;-66
2022/11/24 03:19:22;;;;;;;16.75;3.45;;;7.00;99.90;;;;;;477271;249;28023;-64
2022/11/24 03:21:24;;;;;;;9.32;3.47;;;7.10;99.90;;;;;;477244;249;27973;-64
2022/11/24 03:23:25;;;;;;;14.43;3.58;;;7.10;99.90;;;;;;477256;249;27519;-66
2022/11/24 03:25:26;;;;;;;12.20;3.30;;;7.00;99.90;;;;;;477265;249;27638;-69
2022/11/24 03:27:27;;;;;;;12.13;3.50;;;7.10;99.90;;;;;;477226;249;27514;-66
2022/11/24 03:29:29;;;;;;;15.20;3.25;;;7.10;99.90;;;;;;477251;249;27549;-67
2022/11/24 03:31:30;;;;;;;13.10;3.78;;;7.00;99.90;;;;;;477210;249;28893;-66
2022/11/24 03:33:31;;;;;;;19.50;3.80;;;7.00;99.90;;;;;;477266;249;27958;-67
2022/11/24 03:35:32;;;;;;;13.50;4.10;;;7.00;99.90;;;;;;477255;249;27561;-68
2022/11/24 03:37:34;;;;;;;13.15;4.10;;;7.00;99.90;;;;;;477249;249;27572;-64
2022/11/24 03:39:35;;;;;;;9.52;2.80;;;7.00;99.90;;;;;;477218;249;27547;-66
2022/11/24 03:41:36;;;;;;;23.33;3.60;;;7.00;99.90;;;;;;477221;249;27924;-65
2022/11/24 03:43:37;;;;;;;18.80;3.53;;;7.00;99.90;;;;;;477244;249;28552;-66
2022/11/24 03:45:39;;;;;;;16.62;4.22;;;7.00;99.90;;;;;;477246;249;28011;-67
2022/11/24 03:47:40;;;;;;;20.52;5.22;;;7.10;99.90;;;;;;477244;249;27592;-64
2022/11/24 03:49:41;;;;;;;19.20;3.92;;;7.00;99.90;;;;;;477223;249;27543;-64
2022/11/24 03:51:42;;;;;;;13.95;4.20;;;7.00;99.90;;;;;;477248;249;27544;-69
2022/11/24 03:53:44;;;;;;;16.15;3.78;;;7.00;99.90;;;;;;477249;249;27668;-66
2022/11/24 03:55:45;;;;;;;22.17;3.60;;;7.00;99.90;;;;;;477423;249;28130;-67
2022/11/24 03:57:46;;;;;;;17.95;4.03;;;7.00;99.90;;;;;;477282;249;28071;-64
2022/11/24 03:59:48;;;;;;;12.65;3.85;;;7.00;99.90;;;;;;477250;249;27634;-64
2022/11/24 04:01:49;;;;;;;18.50;4.05;;;7.00;99.90;;;;;;477517;249;27549;-69
2022/11/24 04:03:50;;;;;;;16.48;3.75;;;7.00;99.90;;;;;;477399;249;27516;-66
2022/11/24 04:05:51;;;;;;;16.62;3.90;;;7.00;99.90;;;;;;477248;249;27543;-65
2022/11/24 04:07:53;;;;;;;20.30;3.83;;;7.00;99.90;;;;;;477243;249;28057;-64
2022/11/24 04:09:54;;;;;;;20.02;5.18;;;7.10;99.90;;;;;;477268;249;27976;-66
2022/11/24 04:14:15;;;;;;;20.25;4.65;;;7.10;99.90;;;;;;477288;249;27532;-67
2022/11/24 04:16:16;;;;;;;10.70;3.33;;;7.00;99.90;;;;;;477257;249;27505;-66
2022/11/24 04:18:18;;;;;;;7.32;3.37;;;7.10;99.90;;;;;;477258;249;27974;-65
2022/11/24 04:20:19;;;;;;;14.35;2.97;;;7.00;99.90;;;;;;477239;247;28027;-66
2022/11/24 04:22:20;;;;;;;13.68;3.42;;;7.00;99.90;;;;;;477205;249;27609;-66
2022/11/24 04:24:21;;;;;;;12.48;3.53;;;7.10;99.90;;;;;;477130;249;27537;-70
2022/11/24 04:26:23;;;;;;;17.02;4.57;;;7.00;99.90;;;;;;477264;249;27591;-66
2022/11/24 04:28:24;;;;;;;17.45;4.05;;;7.10;99.90;;;;;;477269;249;27536;-67
2022/11/24 04:30:25;;;;;;;15.65;4.07;;;7.10;99.90;;;;;;477248;249;28745;-64
2022/11/24 04:32:26;;;;;;;14.63;3.40;;;7.10;99.90;;;;;;477232;247;27964;-65
2022/11/24 04:34:28;;;;;;;9.68;3.87;;;7.10;99.90;;;;;;477275;249;27631;-66
2022/11/24 04:36:29;;;;;;;15.95;3.92;;;7.10;99.90;;;;;;477245;249;27537;-64
2022/11/24 04:38:30;;;;;;;15.25;4.57;;;7.10;99.90;;;;;;477239;249;27549;-66
2022/11/24 04:40:31;;;;;;;14.13;3.45;;;7.10;99.90;;;;;;477260;249;27505;-64
2022/11/24 04:42:33;;;;;;;14.63;3.90;;;7.10;99.90;;;;;;477281;249;27971;-64
2022/11/24 04:44:34;;;;;;;16.10;3.28;;;7.10;99.90;;;;;;477283;249;28003;-65
2022/11/24 04:46:35;;;;;;;12.50;3.10;;;7.10;99.90;;;;;;477261;249;27663;-64
2022/11/24 04:48:36;;;;;;;14.95;3.50;;;7.10;99.90;;;;;;477265;249;27693;-65
2022/11/24 04:50:38;;;;;;;17.65;3.90;;;7.10;99.90;;;;;;477254;249;27524;-64
2022/11/24 04:52:39;;;;;;;12.87;3.73;;;7.10;99.90;;;;;;477270;249;27544;-66
2022/11/24 04:54:40;;;;;;;11.85;3.72;;;7.10;99.90;;;;;;477267;249;28922;-65
2022/11/24 04:56:42;;;;;;;20.05;4.47;;;7.10;99.90;;;;;;477248;249;27963;-66
2022/11/24 04:58:43;;;;;;;15.00;3.08;;;7.10;99.90;;;;;;477221;249;27548;-64
2022/11/24 05:00:44;;;;;;;14.90;3.17;;;7.10;99.90;;;;;;477225;249;27593;-64
2022/11/24 05:02:45;;;;;;;10.65;3.62;;;7.10;99.90;;;;;;477282;249;27492;-65
2022/11/24 05:04:46;;;;;;;15.38;3.60;;;7.10;99.90;;;;;;477250;249;27603;-65
2022/11/24 05:06:48;;;;;;;13.48;3.05;;;7.10;99.90;;;;;;477256;249;27502;-64
2022/11/24 05:08:49;;;;;;;13.30;3.62;;;7.10;99.90;;;;;;477219;249;28048;-66
2022/11/24 05:10:50;;;;;;;14.20;3.37;;;7.10;99.90;;;;;;477216;249;27563;-67
2022/11/24 05:12:52;;;;;;;17.75;3.60;;;7.10;99.90;;;;;;477265;249;27504;-66
2022/11/24 05:14:53;;;;;;;15.77;3.42;;;7.10;99.90;;;;;;477243;249;28061;-65
2022/11/24 05:16:54;;;;;;;8.07;2.70;;;7.10;99.90;;;;;;477210;249;28071;-66
2022/11/24 05:18:55;;;;;;;22.27;4.05;;;7.10;99.90;;;;;;477205;249;27521;-64
2022/11/24 05:20:57;;;;;;;14.70;4.10;;;7.10;99.90;;;;;;477162;249;27567;-70
2022/11/24 05:22:58;;;;;;;12.20;3.35;;;7.00;99.90;;;;;;477227;249;27570;-64
2022/11/24 05:24:59;;;;;;;11.38;2.90;;;7.10;99.90;;;;;;477301;249;27672;-66
2022/11/24 05:27:00;;;;;;;14.20;3.78;;;7.10;99.90;;;;;;477276;249;27589;-66
2022/11/24 05:29:02;;;;;;;10.05;3.25;;;7.10;99.90;;;;;;477276;249;27957;-65
2022/11/24 05:31:03;;;;;;;16.90;3.85;;;7.10;99.90;;;;;;477270;249;27543;-66
2022/11/24 05:33:04;;;;;;;18.00;3.97;;;7.10;99.90;;;;;;477278;249;27601;-66
2022/11/24 05:35:06;;;;;;;14.82;3.60;;;7.10;99.90;;;;;;477242;249;27615;-67
2022/11/24 05:37:07;;;;;;;16.55;4.10;;;7.00;99.90;;;;;;477156;249;27540;-70
2022/11/24 05:39:08;;;;;;;16.52;3.28;;;7.00;99.90;;;;;;477294;249;27507;-67
2022/11/24 05:41:09;;;;;;;13.00;3.72;;;7.00;99.90;;;;;;477269;249;28051;-65
2022/11/24 05:43:10;;;;;;;13.52;4.20;;;7.00;99.90;;;;;;477293;249;27505;-65
2022/11/24 05:45:12;;;;;;;9.85;3.40;;;7.00;99.90;;;;;;477228;249;27570;-66
2022/11/24 05:47:13;;;;;;;9.98;3.75;;;7.00;99.90;;;;;;477241;249;27521;-66
2022/11/24 05:49:14;;;;;;;16.67;4.53;;;7.00;99.90;;;;;;477259;249;27664;-66
2022/11/24 05:51:16;;;;;;;8.73;3.05;;;7.00;99.90;;;;;;477241;249;27581;-68
2022/11/24 05:53:17;;;;;;;18.92;4.20;;;7.00;99.90;;;;;;477232;249;27945;-64
2022/11/24 05:55:18;;;;;;;9.30;3.08;;;7.00;99.90;;;;;;477227;249;27553;-66
2022/11/24 05:57:19;;;;;;;12.57;3.65;;;7.00;99.90;;;;;;477254;249;27617;-64
2022/11/24 05:59:21;;;;;;;8.18;2.80;;;7.00;99.90;;;;;;477281;249;27492;-64
2022/11/24 06:01:22;;;;;;;8.75;2.75;;;7.00;99.90;;;;;;477273;249;27536;-67
2022/11/24 06:03:23;;;;;;;10.50;2.70;;;6.90;99.90;;;;;;477256;249;27589;-65
2022/11/24 06:05:24;;;;;;;6.15;2.55;;;7.00;99.90;;;;;;477245;249;28115;-65
2022/11/24 06:07:26;;;;;;;11.38;3.10;;;7.00;99.90;;;;;;477246;249;28101;-68
2022/11/24 06:09:27;;;;;;;10.23;2.83;;;6.90;99.90;;;;;;477246;249;27523;-66
2022/11/24 06:11:28;;;;;;;15.73;3.20;;;6.90;99.90;;;;;;477266;249;28069;-65
2022/11/24 06:13:29;;;;;;;6.72;3.50;;;6.90;99.90;;;;;;477236;249;28013;-65
2022/11/24 06:15:31;;;;;;;8.15;2.80;;;7.00;99.90;;;;;;477212;249;27548;-67
2022/11/24 06:17:32;;;;;;;11.60;2.75;;;7.00;99.90;;;;;;477242;249;27665;-67
2022/11/24 06:19:33;;;;;;;7.80;2.90;;;7.00;99.90;;;;;;477249;249;27488;-65
2022/11/24 06:21:34;;;;;;;8.50;3.05;;;7.00;99.90;;;;;;477225;249;27512;-65
2022/11/24 06:23:36;;;;;;;8.15;2.53;;;7.00;99.90;;;;;;477251;249;27583;-66
2022/11/24 06:25:37;;;;;;;11.35;2.60;;;7.00;99.90;;;;;;477237;249;28021;-65
2022/11/24 06:27:38;;;;;;;7.40;2.55;;;7.00;99.90;;;;;;477267;249;28123;-70
2022/11/24 06:29:39;;;;;;;10.02;3.50;;;7.00;99.90;;;;;;477244;249;27620;-66
2022/11/24 06:31:41;;;;;;;11.57;3.53;;;6.90;99.90;;;;;;477257;249;27615;-64
2022/11/24 06:33:42;;;;;;;12.20;3.22;;;6.90;99.90;;;;;;477233;249;27589;-67
2022/11/24 06:35:43;;;;;;;5.65;2.50;;;7.00;99.90;;;;;;477178;249;27545;-65
2022/11/24 06:37:45;;;;;;;5.87;2.75;;;6.90;99.90;;;;;;477278;249;28103;-68
2022/11/24 06:39:46;;;;;;;12.00;3.10;;;6.90;99.90;;;;;;477267;249;27943;-64
2022/11/24 06:41:47;;;;;;;7.75;3.20;;;6.90;99.90;;;;;;477258;249;27525;-65
2022/11/24 06:43:48;;;;;;;9.85;3.10;;;6.90;99.90;;;;;;477246;249;27502;-66
2022/11/24 06:45:50;;;;;;;12.65;3.37;;;6.90;99.90;;;;;;477221;249;27551;-67
2022/11/24 06:47:51;;;;;;;13.40;3.70;;;7.00;99.90;;;;;;477267;249;27680;-68
2022/11/24 06:49:52;;;;;;;9.02;2.80;;;6.90;99.90;;;;;;477253;249;27605;-64
2022/11/24 06:51:53;;;;;;;9.85;3.10;;;6.90;99.90;;;;;;477187;249;28046;-66
2022/11/24 06:53:55;;;;;;;12.73;3.37;;;6.90;99.90;;;;;;477078;249;28644;-64
2022/11/24 06:55:56;;;;;;;15.68;3.30;;;6.90;99.90;;;;;;477085;249;27509;-66
2022/11/24 06:57:57;;;;;;;8.88;3.72;;;7.00;99.90;;;;;;477062;249;27567;-69
2022/11/24 06:59:58;;;;;;;9.82;2.90;;;7.00;99.90;;;;;;477098;249;27584;-66
2022/11/24 07:02:00;;;;;;;8.75;3.08;;;7.00;99.90;;;;;;477266;249;27649;-65
2022/11/24 07:04:01;;;;;;;7.43;2.60;;;7.00;99.90;;;;;;477238;249;28728;-66
2022/11/24 07:06:03;;;;;;;7.55;2.97;;;7.00;99.90;;;;;;477241;249;28056;-65
2022/11/24 07:08:03;;;;;;;14.77;3.83;;;7.00;99.90;;;;;;477145;249;27659;-68
2022/11/24 07:10:05;;;;;;;9.65;3.90;;;7.00;99.90;;;;;;477230;249;27555;-66
2022/11/24 07:12:06;;;;;;;15.50;4.25;;;7.00;99.90;;;;;;477242;249;27575;-66
2022/11/24 07:14:07;;;;;;;8.43;3.05;;;7.00;99.90;;;;;;477235;249;27591;-65
2022/11/24 07:16:08;;;;;;;13.05;3.53;;;6.90;99.90;;;;;;477251;249;27613;-65
2022/11/24 07:18:10;;;;;;;14.85;4.15;;;7.00;99.90;;;;;;477263;249;28080;-66
2022/11/24 07:20:11;;;;;;;7.93;3.40;;;7.00;99.90;;;;;;477232;249;27515;-66
2022/11/24 07:22:12;;;;;;;8.48;3.37;;;7.00;99.90;;;;;;477195;249;27557;-66
2022/11/24 07:24:14;;;;;;;14.05;3.60;;;7.00;99.90;;;;;;477215;249;27503;-64
2022/11/24 07:26:15;;;;;;;10.48;3.60;;;7.00;99.90;;;;;;477259;249;27547;-64
2022/11/24 07:28:16;;;;;;;9.32;3.03;;;7.00;99.90;;;;;;477258;249;27632;-65
2022/11/24 07:30:17;;;;;;;8.85;2.97;;;7.00;99.90;;;;;;477227;249;27961;-66
2022/11/24 07:32:19;;;;;;;11.63;3.12;;;6.90;99.90;;;;;;477248;249;28176;-67
2022/11/24 07:34:20;;;;;;;11.15;2.70;;;7.00;99.90;;;;;;477245;249;27545;-64
2022/11/24 07:36:21;;;;;;;10.63;3.20;;;7.00;99.90;;;;;;477272;249;27510;-65
2022/11/24 07:38:22;;;;;;;9.82;3.03;;;7.00;99.90;;;;;;477272;249;27637;-65
2022/11/24 07:40:24;;;;;;;9.18;3.08;;;7.00;99.90;;;;;;477258;249;27509;-64
2022/11/24 07:42:25;;;;;;;9.65;3.45;;;7.00;99.90;;;;;;477229;249;28026;-64
2022/11/24 07:44:26;;;;;;;6.35;2.92;;;7.00;99.90;;;;;;477250;249;28752;-64
2022/11/24 07:46:27;;;;;;;11.70;2.90;;;7.00;99.90;;;;;;477279;249;27501;-67
2022/11/24 07:48:29;;;;;;;7.18;3.15;;;7.00;99.90;;;;;;477241;249;27565;-67
2022/11/24 07:50:30;;;;;;;7.55;2.97;;;6.90;99.90;;;;;;477228;249;27606;-64
2022/11/24 07:52:31;;;;;;;9.77;3.60;;;6.90;99.90;;;;;;477264;249;27545;-65
2022/11/24 07:54:32;;;;;;;12.98;3.90;;;6.90;99.90;;;;;;477254;249;27897;-69
2022/11/24 07:56:34;;;;;;;7.37;2.80;;;6.90;99.90;;;;;;477219;249;27991;-66
2022/11/24 07:58:35;;;;;;;8.88;3.20;;;6.90;99.90;;;;;;477274;249;28118;-65
2022/11/24 08:00:36;;;;;;;8.48;3.33;;;6.90;99.90;;;;;;477012;249;27504;-64
2022/11/24 08:02:37;;;;;;;10.15;2.70;;;7.00;99.90;;;;;;477241;249;27631;-66
2022/11/24 08:04:39;;;;;;;9.02;2.60;;;7.00;99.90;;;;;;477255;249;27568;-65
2022/11/24 08:06:40;;;;;;;6.93;2.70;;;7.00;99.90;;;;;;477282;249;27610;-65
2022/11/24 08:08:41;;;;;;;7.25;3.00;;;7.10;99.90;;;;;;477256;249;27540;-67
2022/11/24 08:10:42;;;;;;;5.45;2.55;;;7.10;99.90;;;;;;477244;249;28006;-66
2022/11/24 08:12:44;;;;;;;7.50;2.95;;;7.20;99.90;;;;;;477299;249;28015;-66
2022/11/24 08:14:45;;;;;;;4.50;2.60;;;7.20;99.90;;;;;;477287;249;27561;-66
2022/11/24 08:16:46;;;;;;;9.73;2.70;;;7.20;99.90;;;;;;477276;249;27500;-66
2022/11/24 08:18:47;;;;;;;11.05;3.08;;;7.20;99.90;;;;;;477294;249;27558;-67
2022/11/24 08:20:49;;;;;;;6.93;3.12;;;7.30;99.90;;;;;;477290;249;27585;-67
2022/11/24 08:22:50;;;;;;;9.48;2.75;;;7.30;99.90;;;;;;477341;249;27661;-66
2022/11/24 08:24:51;;;;;;;5.95;2.40;;;7.30;99.90;;;;;;477316;249;28452;-66
2022/11/24 08:26:53;;;;;;;6.87;2.70;;;7.40;99.90;;;;;;477296;249;27961;-66
2022/11/24 08:28:54;;;;;;;7.80;2.90;;;7.50;99.90;;;;;;477302;249;27612;-67
2022/11/24 08:30:55;;;;;;;8.63;2.90;;;7.50;99.90;;;;;;477254;249;27496;-66
2022/11/24 08:32:56;;;;;;;11.75;2.92;;;7.50;99.90;;;;;;477228;249;27652;-70
2022/11/24 08:34:58;;;;;;;5.57;2.95;;;7.60;99.90;;;;;;477287;249;27568;-69
2022/11/24 08:36:59;;;;;;;6.40;2.40;;;7.60;99.90;;;;;;477266;249;27512;-66
2022/11/24 08:39:00;;;;;;;12.47;3.23;;;7.60;99.90;;;;;;477268;249;28920;-67
2022/11/24 08:41:01;;;;;;;7.43;2.53;;;7.50;99.90;;;;;;477232;249;29302;-67
2022/11/24 08:43:03;;;;;;;13.18;3.42;;;7.50;99.90;;;;;;477240;247;27513;-66
2022/11/24 08:45:04;;;;;;;5.47;2.37;;;7.50;99.90;;;;;;477286;249;27537;-69
2022/11/24 08:47:05;;;;;;;12.32;3.00;;;7.50;99.90;;;;;;477271;244;28944;-66
2022/11/24 08:49:07;;;;;;;7.18;2.72;;;7.50;99.90;;;;;;477261;249;27543;-66
2022/11/24 08:51:08;;;;;;;9.07;3.17;;;7.60;99.90;;;;;;477242;249;27517;-66
2022/11/24 08:53:09;;;;;;;7.53;2.70;;;7.50;99.90;;;;;;477275;249;28026;-66
2022/11/24 08:55:10;;;;;;;11.60;3.17;;;7.60;99.90;;;;;;477191;249;27900;-68
2022/11/24 08:57:11;;;;;;;10.70;2.70;;;7.50;99.90;;;;;;477255;249;28850;-66
2022/11/24 08:59:13;;;;;;;5.15;2.35;;;7.50;99.90;;;;;;477245;249;28864;-67
2022/11/24 09:01:14;;;;;;;10.15;3.25;;;7.50;99.90;;;;;;477238;249;28035;-66
2022/11/24 09:03:15;;;;;;;6.80;2.60;;;7.60;99.90;;;;;;477247;249;27514;-66
2022/11/24 09:05:16;;;;;;;5.90;2.30;;;7.70;99.90;;;;;;477269;249;28492;-69
2022/11/24 09:07:18;;;;;;;8.80;2.73;;;7.80;99.90;;;;;;477244;249;28948;-66
2022/11/24 09:09:19;;;;;;;7.33;2.90;;;7.90;99.90;;;;;;477251;249;28918;-67
2022/11/24 09:11:20;;;;;;;15.53;3.17;;;7.90;99.90;;;;;;477217;249;28920;-66
2022/11/24 09:13:21;;;;;;;5.43;2.90;;;7.90;99.90;;;;;;477248;249;28228;-66
2022/11/24 09:15:23;;;;;;;7.43;2.70;;;7.90;99.90;;;;;;477247;249;27676;-69
2022/11/24 09:17:24;;;;;;;10.10;2.60;;;8.00;99.90;;;;;;477244;249;27939;-67
2022/11/24 09:19:25;;;;;;;6.43;2.33;;;7.90;99.90;;;;;;477244;249;27655;-67
2022/11/24 09:21:26;;;;;;;11.50;2.97;;;7.80;99.90;;;;;;477215;249;28013;-66
2022/11/24 09:23:28;;;;;;;13.63;3.10;;;7.90;99.90;;;;;;477274;249;28550;-67
2022/11/24 09:25:29;;;;;;;15.23;3.30;;;7.90;99.90;;;;;;477237;249;28468;-69
2022/11/24 09:27:30;;;;;;;3.33;2.73;;;8.00;99.90;;;;;;477259;249;28209;-66
2022/11/24 09:29:32;;;;;;;6.00;2.70;;;7.90;99.90;;;;;;477265;249;28175;-66
2022/11/24 09:31:33;;;;;;;6.30;2.93;;;8.00;99.90;;;;;;477041;249;27901;-66
2022/11/24 09:33:34;;;;;;;5.33;2.80;;;8.00;99.90;;;;;;477260;249;28046;-66
2022/11/24 09:35:35;;;;;;;8.57;2.93;;;8.10;99.90;;;;;;477240;249;27853;-68
2022/11/24 09:37:37;;;;;;;7.60;2.60;;;8.10;99.90;;;;;;477248;249;27952;-66
2022/11/24 09:39:38;;;;;;;10.80;3.10;;;8.10;99.90;;;;;;477231;249;27751;-66
2022/11/24 09:41:39;;;;;;;5.33;2.70;;;8.00;99.90;;;;;;477237;249;28665;-66
2022/11/24 09:43:40;;;;;;;7.10;2.73;;;8.10;99.90;;;;;;477261;249;28028;-66
2022/11/24 09:45:42;;;;;;;7.80;3.03;;;8.10;99.90;;;;;;477264;249;27992;-67
2022/11/24 09:47:43;;;;;;;10.80;3.23;;;8.10;99.90;;;;;;477223;249;27953;-66
2022/11/24 09:49:44;;;;;;;9.33;3.80;;;8.10;99.90;;;;;;477256;249;28008;-67
2022/11/24 09:51:45;;;;;;;8.13;3.10;;;8.10;99.90;;;;;;477227;249;29064;-66
2022/11/24 09:53:47;;;;;;;7.87;3.28;;;8.10;99.90;;;;;;477282;249;29320;-66
2022/11/24 09:55:48;;;;;;;5.93;2.87;;;8.00;99.90;;;;;;477278;249;27491;-68
2022/11/24 09:57:49;;;;;;;6.22;3.12;;;8.00;99.90;;;;;;477293;249;27861;-66
2022/11/24 09:59:50;;;;;;;11.23;3.07;;;8.00;99.90;;;;;;477242;249;27544;-66
2022/11/24 10:01:52;;;;;;;4.50;2.50;;;8.00;99.90;;;;;;477237;249;27989;-66
2022/11/24 10:03:53;;;;;;;9.30;3.40;;;8.00;99.90;;;;;;477261;249;28017;-66
2022/11/24 10:05:54;;;;;;;6.40;2.63;;;8.00;99.90;;;;;;477284;249;28584;-69
2022/11/24 10:07:55;;;;;;;6.30;2.73;;;8.00;99.90;;;;;;477267;249;27635;-68
2022/11/24 10:09:57;;;;;;;5.10;2.80;;;8.00;99.90;;;;;;477266;249;28012;-67
2022/11/24 10:11:58;;;;;;;6.13;2.70;;;8.10;99.90;;;;;;477241;249;28001;-68
2022/11/24 10:13:59;;;;;;;8.53;3.20;;;8.10;99.90;;;;;;477256;249;28228;-66
2022/11/24 10:16:00;;;;;;;5.90;3.00;;;8.10;99.90;;;;;;477271;249;28255;-69
2022/11/24 10:18:02;;;;;;;5.60;2.93;;;8.10;99.90;;;;;;477263;249;28061;-67
2022/11/24 10:20:03;;;;;;;4.40;3.40;;;8.20;99.90;;;;;;477253;249;27978;-66
2022/11/24 10:22:04;;;;;;;5.70;2.80;;;8.20;99.90;;;;;;477226;249;28039;-65
2022/11/24 10:24:05;;;;;;;5.13;2.53;;;8.30;99.90;;;;;;477250;249;28017;-66
2022/11/24 10:26:07;;;;;;;5.67;3.20;;;8.30;99.90;;;;;;477260;249;28094;-69
2022/11/24 10:28:08;;;;;;;9.43;3.00;;;8.30;99.90;;;;;;477256;249;27967;-66
2022/11/24 10:30:09;;;;;;;9.57;3.30;;;8.30;99.90;;;;;;477243;249;27922;-67
2022/11/24 10:32:10;;;;;;;7.50;3.17;;;8.30;99.90;;;;;;477225;249;28033;-65
2022/11/24 10:34:12;;;;;;;8.27;3.60;;;8.20;99.90;;;;;;477239;249;27546;-66
2022/11/24 10:36:13;;;;;;;5.63;2.73;;;8.10;99.90;;;;;;477272;249;28050;-69
2022/11/24 10:38:14;;;;;;;8.70;3.07;;;8.10;99.90;;;;;;477217;249;27986;-66